sensor_id;sensor_type;location;lat;lon;timestamp;P1;durP1;ratioP1;P2;durP2;ratioP2
15006;SDS011;7599;50.748;13.142;2023-04-07T00:01:09;6.28;;;2.70;;
15006;SDS011;7599;50.748;13.142;2023-04-07T00:04:12;7.43;;;2.90;;
15006;SDS011;7599;50.748;13.142;2023-04-07T00:07:16;7.03;;;2.97;;
15006;SDS011;7599;50.748;13.142;2023-04-07T00:10:18;6.78;;;2.83;;
15006;SDS011;7599;50.748;13.142;2023-04-07T00:13:20;6.53;;;2.70;;
15006;SDS011;7599;50.748;13.142;2023-04-07T00:16:25;5.85;;;3.05;;
15006;SDS011;7599;50.748;13.142;2023-04-07T00:19:29;7.40;;;2.90;;
15006;SDS011;7599;50.748;13.142;2023-04-07T00:22:33;7.57;;;2.83;;
15006;SDS011;7599;50.748;13.142;2023-04-07T00:25:36;6.85;;;2.83;;
15006;SDS011;7599;50.748;13.142;2023-04-07T00:28:38;7.00;;;2.70;;
15006;SDS011;7599;50.748;13.142;2023-04-07T00:31:42;6.80;;;2.97;;
15006;SDS011;7599;50.748;13.142;2023-04-07T00:34:45;6.80;;;3.28;;
15006;SDS011;7599;50.748;13.142;2023-04-07T00:37:47;6.85;;;2.83;;
15006;SDS011;7599;50.748;13.142;2023-04-07T00:40:55;6.93;;;3.08;;
15006;SDS011;7599;50.748;13.142;2023-04-07T00:43:59;6.82;;;3.20;;
15006;SDS011;7599;50.748;13.142;2023-04-07T00:47:03;6.57;;;2.97;;
15006;SDS011;7599;50.748;13.142;2023-04-07T00:50:06;7.72;;;3.25;;
15006;SDS011;7599;50.748;13.142;2023-04-07T00:56:13;7.28;;;3.10;;
15006;SDS011;7599;50.748;13.142;2023-04-07T00:59:15;7.22;;;2.80;;
15006;SDS011;7599;50.748;13.142;2023-04-07T01:02:20;7.38;;;2.90;;
15006;SDS011;7599;50.748;13.142;2023-04-07T01:05:29;6.28;;;2.53;;
15006;SDS011;7599;50.748;13.142;2023-04-07T01:08:41;7.35;;;3.65;;
15006;SDS011;7599;50.748;13.142;2023-04-07T01:11:52;5.93;;;2.83;;
15006;SDS011;7599;50.748;13.142;2023-04-07T01:18:12;6.88;;;2.72;;
15006;SDS011;7599;50.748;13.142;2023-04-07T01:21:18;6.70;;;2.63;;
15006;SDS011;7599;50.748;13.142;2023-04-07T01:24:28;6.40;;;2.72;;
15006;SDS011;7599;50.748;13.142;2023-04-07T01:27:42;6.95;;;2.90;;
15006;SDS011;7599;50.748;13.142;2023-04-07T01:31:03;7.97;;;4.60;;
15006;SDS011;7599;50.748;13.142;2023-04-07T01:34:09;6.78;;;4.57;;
15006;SDS011;7599;50.748;13.142;2023-04-07T01:37:13;6.78;;;3.60;;
15006;SDS011;7599;50.748;13.142;2023-04-07T01:40:17;7.68;;;4.07;;
15006;SDS011;7599;50.748;13.142;2023-04-07T01:43:22;6.20;;;2.65;;
15006;SDS011;7599;50.748;13.142;2023-04-07T01:46:28;5.85;;;2.58;;
15006;SDS011;7599;50.748;13.142;2023-04-07T01:49:32;4.97;;;2.50;;
15006;SDS011;7599;50.748;13.142;2023-04-07T01:52:37;5.40;;;2.40;;
15006;SDS011;7599;50.748;13.142;2023-04-07T01:55:41;6.32;;;2.92;;
15006;SDS011;7599;50.748;13.142;2023-04-07T02:01:48;7.25;;;4.57;;
15006;SDS011;7599;50.748;13.142;2023-04-07T02:04:53;6.88;;;2.88;;
15006;SDS011;7599;50.748;13.142;2023-04-07T02:07:58;6.38;;;2.80;;
15006;SDS011;7599;50.748;13.142;2023-04-07T02:11:03;5.90;;;3.03;;
15006;SDS011;7599;50.748;13.142;2023-04-07T02:14:08;6.00;;;2.60;;
15006;SDS011;7599;50.748;13.142;2023-04-07T02:17:12;6.95;;;2.92;;
15006;SDS011;7599;50.748;13.142;2023-04-07T02:20:17;7.55;;;3.08;;
15006;SDS011;7599;50.748;13.142;2023-04-07T02:23:21;5.30;;;2.33;;
15006;SDS011;7599;50.748;13.142;2023-04-07T02:26:23;7.50;;;4.82;;
15006;SDS011;7599;50.748;13.142;2023-04-07T02:29:26;6.32;;;2.22;;
15006;SDS011;7599;50.748;13.142;2023-04-07T02:32:31;6.07;;;2.78;;
15006;SDS011;7599;50.748;13.142;2023-04-07T02:35:33;5.40;;;2.60;;
15006;SDS011;7599;50.748;13.142;2023-04-07T02:38:36;6.85;;;2.75;;
15006;SDS011;7599;50.748;13.142;2023-04-07T02:41:39;5.80;;;2.40;;
15006;SDS011;7599;50.748;13.142;2023-04-07T02:44:42;5.78;;;2.50;;
15006;SDS011;7599;50.748;13.142;2023-04-07T02:47:46;6.53;;;2.53;;
15006;SDS011;7599;50.748;13.142;2023-04-07T02:50:49;4.80;;;2.08;;
15006;SDS011;7599;50.748;13.142;2023-04-07T02:53:51;5.20;;;2.50;;
15006;SDS011;7599;50.748;13.142;2023-04-07T02:56:54;6.95;;;3.28;;
15006;SDS011;7599;50.748;13.142;2023-04-07T02:59:57;6.45;;;3.10;;
15006;SDS011;7599;50.748;13.142;2023-04-07T03:03:01;5.97;;;2.50;;
15006;SDS011;7599;50.748;13.142;2023-04-07T03:06:04;6.40;;;2.78;;
15006;SDS011;7599;50.748;13.142;2023-04-07T03:09:07;5.78;;;2.72;;
15006;SDS011;7599;50.748;13.142;2023-04-07T03:12:10;5.22;;;2.50;;
15006;SDS011;7599;50.748;13.142;2023-04-07T03:15:12;6.15;;;2.70;;
15006;SDS011;7599;50.748;13.142;2023-04-07T03:18:20;6.78;;;4.38;;
15006;SDS011;7599;50.748;13.142;2023-04-07T03:21:23;5.75;;;2.55;;
15006;SDS011;7599;50.748;13.142;2023-04-07T03:24:26;5.50;;;2.67;;
15006;SDS011;7599;50.748;13.142;2023-04-07T03:27:28;5.60;;;2.45;;
15006;SDS011;7599;50.748;13.142;2023-04-07T03:30:31;4.93;;;2.00;;
15006;SDS011;7599;50.748;13.142;2023-04-07T03:33:34;5.28;;;2.17;;
15006;SDS011;7599;50.748;13.142;2023-04-07T03:36:37;5.47;;;2.28;;
15006;SDS011;7599;50.748;13.142;2023-04-07T03:39:40;5.20;;;2.33;;
15006;SDS011;7599;50.748;13.142;2023-04-07T03:42:44;7.05;;;2.75;;
15006;SDS011;7599;50.748;13.142;2023-04-07T03:45:46;5.07;;;2.13;;
15006;SDS011;7599;50.748;13.142;2023-04-07T03:48:50;4.55;;;2.25;;
15006;SDS011;7599;50.748;13.142;2023-04-07T03:51:53;6.43;;;2.22;;
15006;SDS011;7599;50.748;13.142;2023-04-07T03:54:55;4.90;;;2.10;;
15006;SDS011;7599;50.748;13.142;2023-04-07T03:57:58;7.00;;;3.92;;
15006;SDS011;7599;50.748;13.142;2023-04-07T04:01:01;4.97;;;2.17;;
15006;SDS011;7599;50.748;13.142;2023-04-07T04:04:05;6.28;;;2.92;;
15006;SDS011;7599;50.748;13.142;2023-04-07T04:07:08;6.07;;;2.65;;
15006;SDS011;7599;50.748;13.142;2023-04-07T04:10:11;6.38;;;2.58;;
15006;SDS011;7599;50.748;13.142;2023-04-07T04:13:16;5.32;;;2.13;;
15006;SDS011;7599;50.748;13.142;2023-04-07T04:16:19;4.18;;;1.92;;
15006;SDS011;7599;50.748;13.142;2023-04-07T04:19:23;4.97;;;2.40;;
15006;SDS011;7599;50.748;13.142;2023-04-07T04:22:26;5.10;;;2.20;;
15006;SDS011;7599;50.748;13.142;2023-04-07T04:25:28;5.30;;;2.33;;
15006;SDS011;7599;50.748;13.142;2023-04-07T04:28:31;4.78;;;2.38;;
15006;SDS011;7599;50.748;13.142;2023-04-07T04:31:34;5.78;;;2.35;;
15006;SDS011;7599;50.748;13.142;2023-04-07T04:34:38;6.05;;;2.40;;
15006;SDS011;7599;50.748;13.142;2023-04-07T04:37:42;6.07;;;2.38;;
15006;SDS011;7599;50.748;13.142;2023-04-07T04:40:46;4.53;;;2.30;;
15006;SDS011;7599;50.748;13.142;2023-04-07T04:43:48;6.22;;;2.65;;
15006;SDS011;7599;50.748;13.142;2023-04-07T04:46:51;5.28;;;2.30;;
15006;SDS011;7599;50.748;13.142;2023-04-07T04:49:59;4.95;;;2.50;;
15006;SDS011;7599;50.748;13.142;2023-04-07T04:53:02;4.85;;;2.30;;
15006;SDS011;7599;50.748;13.142;2023-04-07T04:56:05;6.38;;;2.47;;
15006;SDS011;7599;50.748;13.142;2023-04-07T04:59:08;5.82;;;2.45;;
15006;SDS011;7599;50.748;13.142;2023-04-07T05:02:11;5.18;;;2.53;;
15006;SDS011;7599;50.748;13.142;2023-04-07T05:05:15;5.30;;;2.33;;
15006;SDS011;7599;50.748;13.142;2023-04-07T05:08:18;4.93;;;2.00;;
15006;SDS011;7599;50.748;13.142;2023-04-07T05:11:20;5.18;;;2.10;;
15006;SDS011;7599;50.748;13.142;2023-04-07T05:14:23;4.35;;;1.85;;
15006;SDS011;7599;50.748;13.142;2023-04-07T05:17:26;3.63;;;2.10;;
15006;SDS011;7599;50.748;13.142;2023-04-07T05:20:30;5.20;;;2.00;;
15006;SDS011;7599;50.748;13.142;2023-04-07T05:23:33;4.57;;;1.98;;
15006;SDS011;7599;50.748;13.142;2023-04-07T05:26:36;5.55;;;2.00;;
15006;SDS011;7599;50.748;13.142;2023-04-07T05:29:38;6.38;;;2.10;;
15006;SDS011;7599;50.748;13.142;2023-04-07T05:32:41;6.07;;;2.42;;
15006;SDS011;7599;50.748;13.142;2023-04-07T05:35:45;4.95;;;2.08;;
15006;SDS011;7599;50.748;13.142;2023-04-07T05:38:48;5.05;;;2.22;;
15006;SDS011;7599;50.748;13.142;2023-04-07T05:41:52;6.90;;;2.28;;
15006;SDS011;7599;50.748;13.142;2023-04-07T05:44:56;5.30;;;2.38;;
15006;SDS011;7599;50.748;13.142;2023-04-07T05:47:59;5.03;;;2.10;;
15006;SDS011;7599;50.748;13.142;2023-04-07T05:51:07;4.47;;;1.83;;
15006;SDS011;7599;50.748;13.142;2023-04-07T05:54:10;4.90;;;2.13;;
15006;SDS011;7599;50.748;13.142;2023-04-07T05:57:13;4.72;;;2.15;;
15006;SDS011;7599;50.748;13.142;2023-04-07T06:00:16;4.97;;;1.95;;
15006;SDS011;7599;50.748;13.142;2023-04-07T06:03:19;5.60;;;2.50;;
15006;SDS011;7599;50.748;13.142;2023-04-07T06:06:24;5.22;;;2.15;;
15006;SDS011;7599;50.748;13.142;2023-04-07T06:09:28;5.25;;;2.17;;
15006;SDS011;7599;50.748;13.142;2023-04-07T06:12:30;4.03;;;2.03;;
15006;SDS011;7599;50.748;13.142;2023-04-07T06:15:33;6.10;;;3.33;;
15006;SDS011;7599;50.748;13.142;2023-04-07T06:18:36;4.10;;;2.28;;
15006;SDS011;7599;50.748;13.142;2023-04-07T06:21:40;4.13;;;1.90;;
15006;SDS011;7599;50.748;13.142;2023-04-07T06:24:42;5.47;;;2.45;;
15006;SDS011;7599;50.748;13.142;2023-04-07T06:27:45;6.07;;;2.55;;
15006;SDS011;7599;50.748;13.142;2023-04-07T06:30:50;5.22;;;1.90;;
15006;SDS011;7599;50.748;13.142;2023-04-07T06:33:53;5.75;;;2.30;;
15006;SDS011;7599;50.748;13.142;2023-04-07T06:37:00;5.15;;;2.25;;
15006;SDS011;7599;50.748;13.142;2023-04-07T06:40:03;4.20;;;1.90;;
15006;SDS011;7599;50.748;13.142;2023-04-07T06:43:09;6.05;;;2.33;;
15006;SDS011;7599;50.748;13.142;2023-04-07T06:46:11;5.88;;;2.60;;
15006;SDS011;7599;50.748;13.142;2023-04-07T06:49:14;5.70;;;2.13;;
15006;SDS011;7599;50.748;13.142;2023-04-07T06:52:19;5.13;;;2.03;;
15006;SDS011;7599;50.748;13.142;2023-04-07T06:55:21;5.63;;;2.58;;
15006;SDS011;7599;50.748;13.142;2023-04-07T06:58:24;4.30;;;2.15;;
15006;SDS011;7599;50.748;13.142;2023-04-07T07:01:36;5.18;;;2.38;;
15006;SDS011;7599;50.748;13.142;2023-04-07T07:04:48;7.30;;;2.20;;
15006;SDS011;7599;50.748;13.142;2023-04-07T07:07:51;5.72;;;2.47;;
15006;SDS011;7599;50.748;13.142;2023-04-07T07:10:54;6.18;;;2.20;;
15006;SDS011;7599;50.748;13.142;2023-04-07T07:13:57;5.15;;;2.17;;
15006;SDS011;7599;50.748;13.142;2023-04-07T07:17:00;4.28;;;1.85;;
15006;SDS011;7599;50.748;13.142;2023-04-07T07:20:04;6.95;;;4.22;;
15006;SDS011;7599;50.748;13.142;2023-04-07T07:23:09;5.45;;;2.28;;
15006;SDS011;7599;50.748;13.142;2023-04-07T07:26:11;3.78;;;1.88;;
15006;SDS011;7599;50.748;13.142;2023-04-07T07:29:14;6.75;;;2.20;;
15006;SDS011;7599;50.748;13.142;2023-04-07T07:32:17;5.45;;;2.25;;
15006;SDS011;7599;50.748;13.142;2023-04-07T07:35:20;7.00;;;2.38;;
15006;SDS011;7599;50.748;13.142;2023-04-07T07:38:26;6.43;;;2.17;;
15006;SDS011;7599;50.748;13.142;2023-04-07T07:41:29;4.75;;;2.10;;
15006;SDS011;7599;50.748;13.142;2023-04-07T07:44:31;5.45;;;2.58;;
15006;SDS011;7599;50.748;13.142;2023-04-07T07:47:34;6.97;;;2.60;;
15006;SDS011;7599;50.748;13.142;2023-04-07T07:50:38;6.60;;;2.45;;
15006;SDS011;7599;50.748;13.142;2023-04-07T07:53:42;6.15;;;2.50;;
15006;SDS011;7599;50.748;13.142;2023-04-07T07:56:45;5.35;;;2.20;;
15006;SDS011;7599;50.748;13.142;2023-04-07T07:59:47;5.88;;;2.40;;
15006;SDS011;7599;50.748;13.142;2023-04-07T08:02:50;6.70;;;3.60;;
15006;SDS011;7599;50.748;13.142;2023-04-07T08:05:53;6.65;;;3.80;;
15006;SDS011;7599;50.748;13.142;2023-04-07T08:08:58;5.13;;;2.08;;
15006;SDS011;7599;50.748;13.142;2023-04-07T08:12:01;6.45;;;2.67;;
15006;SDS011;7599;50.748;13.142;2023-04-07T08:15:04;5.28;;;2.30;;
15006;SDS011;7599;50.748;13.142;2023-04-07T08:18:09;5.03;;;1.92;;
15006;SDS011;7599;50.748;13.142;2023-04-07T08:21:12;5.47;;;2.45;;
15006;SDS011;7599;50.748;13.142;2023-04-07T08:24:16;4.78;;;2.03;;
15006;SDS011;7599;50.748;13.142;2023-04-07T08:27:19;5.15;;;2.13;;
15006;SDS011;7599;50.748;13.142;2023-04-07T08:30:22;5.43;;;2.22;;
15006;SDS011;7599;50.748;13.142;2023-04-07T08:33:24;4.47;;;2.10;;
15006;SDS011;7599;50.748;13.142;2023-04-07T08:36:27;5.45;;;2.25;;
15006;SDS011;7599;50.748;13.142;2023-04-07T08:39:31;4.68;;;1.98;;
15006;SDS011;7599;50.748;13.142;2023-04-07T08:42:34;4.95;;;2.15;;
15006;SDS011;7599;50.748;13.142;2023-04-07T08:45:42;6.40;;;2.65;;
15006;SDS011;7599;50.748;13.142;2023-04-07T08:48:49;6.53;;;2.70;;
15006;SDS011;7599;50.748;13.142;2023-04-07T08:51:53;5.80;;;2.45;;
15006;SDS011;7599;50.748;13.142;2023-04-07T08:54:59;6.30;;;2.53;;
15006;SDS011;7599;50.748;13.142;2023-04-07T08:58:03;7.15;;;2.78;;
15006;SDS011;7599;50.748;13.142;2023-04-07T09:01:07;6.95;;;3.40;;
15006;SDS011;7599;50.748;13.142;2023-04-07T09:04:10;8.48;;;2.90;;
15006;SDS011;7599;50.748;13.142;2023-04-07T09:07:13;6.50;;;3.05;;
15006;SDS011;7599;50.748;13.142;2023-04-07T09:10:17;8.68;;;2.88;;
15006;SDS011;7599;50.748;13.142;2023-04-07T09:13:20;5.53;;;2.40;;
15006;SDS011;7599;50.748;13.142;2023-04-07T09:16:23;8.95;;;2.72;;
15006;SDS011;7599;50.748;13.142;2023-04-07T09:19:26;6.78;;;2.58;;
15006;SDS011;7599;50.748;13.142;2023-04-07T09:22:34;7.60;;;2.88;;
15006;SDS011;7599;50.748;13.142;2023-04-07T09:25:40;6.00;;;2.58;;
15006;SDS011;7599;50.748;13.142;2023-04-07T09:28:43;7.07;;;2.83;;
15006;SDS011;7599;50.748;13.142;2023-04-07T09:31:47;8.15;;;2.47;;
15006;SDS011;7599;50.748;13.142;2023-04-07T09:34:57;6.45;;;2.60;;
15006;SDS011;7599;50.748;13.142;2023-04-07T09:38:01;7.32;;;2.90;;
15006;SDS011;7599;50.748;13.142;2023-04-07T09:41:06;6.63;;;2.58;;
15006;SDS011;7599;50.748;13.142;2023-04-07T09:44:11;7.30;;;4.07;;
15006;SDS011;7599;50.748;13.142;2023-04-07T09:47:14;7.30;;;2.70;;
15006;SDS011;7599;50.748;13.142;2023-04-07T09:50:17;6.45;;;2.50;;
15006;SDS011;7599;50.748;13.142;2023-04-07T09:53:40;7.22;;;2.58;;
15006;SDS011;7599;50.748;13.142;2023-04-07T09:56:49;6.15;;;2.63;;
15006;SDS011;7599;50.748;13.142;2023-04-07T09:59:51;6.60;;;2.97;;
15006;SDS011;7599;50.748;13.142;2023-04-07T10:02:56;7.80;;;2.83;;
15006;SDS011;7599;50.748;13.142;2023-04-07T10:05:59;6.85;;;2.33;;
15006;SDS011;7599;50.748;13.142;2023-04-07T10:09:03;6.35;;;2.50;;
15006;SDS011;7599;50.748;13.142;2023-04-07T10:12:07;6.65;;;3.13;;
15006;SDS011;7599;50.748;13.142;2023-04-07T10:15:10;8.18;;;2.75;;
15006;SDS011;7599;50.748;13.142;2023-04-07T10:18:14;7.40;;;2.85;;
15006;SDS011;7599;50.748;13.142;2023-04-07T10:21:19;6.38;;;2.60;;
15006;SDS011;7599;50.748;13.142;2023-04-07T10:24:25;6.75;;;2.70;;
15006;SDS011;7599;50.748;13.142;2023-04-07T10:30:50;6.78;;;3.08;;
15006;SDS011;7599;50.748;13.142;2023-04-07T10:33:53;6.47;;;2.42;;
15006;SDS011;7599;50.748;13.142;2023-04-07T10:37:10;6.15;;;2.55;;
15006;SDS011;7599;50.748;13.142;2023-04-07T10:40:26;6.03;;;2.63;;
15006;SDS011;7599;50.748;13.142;2023-04-07T10:43:40;7.38;;;2.97;;
15006;SDS011;7599;50.748;13.142;2023-04-07T10:47:03;5.60;;;2.53;;
15006;SDS011;7599;50.748;13.142;2023-04-07T10:50:16;6.90;;;2.58;;
15006;SDS011;7599;50.748;13.142;2023-04-07T10:53:20;6.65;;;2.55;;
15006;SDS011;7599;50.748;13.142;2023-04-07T10:56:24;5.95;;;2.38;;
15006;SDS011;7599;50.748;13.142;2023-04-07T10:59:28;6.40;;;2.35;;
15006;SDS011;7599;50.748;13.142;2023-04-07T11:02:31;6.70;;;2.70;;
15006;SDS011;7599;50.748;13.142;2023-04-07T11:05:35;7.05;;;3.70;;
15006;SDS011;7599;50.748;13.142;2023-04-07T11:08:39;5.97;;;2.50;;
15006;SDS011;7599;50.748;13.142;2023-04-07T11:11:43;8.07;;;3.50;;
15006;SDS011;7599;50.748;13.142;2023-04-07T11:14:49;8.20;;;3.03;;
15006;SDS011;7599;50.748;13.142;2023-04-07T11:18:11;8.98;;;4.82;;
15006;SDS011;7599;50.748;13.142;2023-04-07T11:21:16;8.48;;;3.00;;
15006;SDS011;7599;50.748;13.142;2023-04-07T11:24:32;7.93;;;3.17;;
15006;SDS011;7599;50.748;13.142;2023-04-07T11:27:37;6.97;;;3.00;;
15006;SDS011;7599;50.748;13.142;2023-04-07T11:30:45;7.45;;;3.30;;
15006;SDS011;7599;50.748;13.142;2023-04-07T11:33:50;8.20;;;3.08;;
15006;SDS011;7599;50.748;13.142;2023-04-07T11:36:54;6.80;;;2.67;;
15006;SDS011;7599;50.748;13.142;2023-04-07T11:40:00;7.47;;;2.83;;
15006;SDS011;7599;50.748;13.142;2023-04-07T11:43:14;6.32;;;2.53;;
15006;SDS011;7599;50.748;13.142;2023-04-07T11:49:24;6.72;;;2.47;;
15006;SDS011;7599;50.748;13.142;2023-04-07T11:52:28;7.22;;;2.88;;
15006;SDS011;7599;50.748;13.142;2023-04-07T11:55:41;7.18;;;2.70;;
15006;SDS011;7599;50.748;13.142;2023-04-07T11:58:47;7.32;;;2.80;;
15006;SDS011;7599;50.748;13.142;2023-04-07T12:01:52;7.03;;;2.80;;
15006;SDS011;7599;50.748;13.142;2023-04-07T12:04:58;6.50;;;2.78;;
15006;SDS011;7599;50.748;13.142;2023-04-07T12:08:00;6.57;;;2.72;;
15006;SDS011;7599;50.748;13.142;2023-04-07T12:11:04;7.93;;;2.85;;
15006;SDS011;7599;50.748;13.142;2023-04-07T12:14:08;5.72;;;2.45;;
15006;SDS011;7599;50.748;13.142;2023-04-07T12:17:21;7.05;;;2.72;;
15006;SDS011;7599;50.748;13.142;2023-04-07T12:21:10;7.43;;;2.50;;
15006;SDS011;7599;50.748;13.142;2023-04-07T12:24:38;7.05;;;2.65;;
15006;SDS011;7599;50.748;13.142;2023-04-07T12:29:11;6.30;;;2.63;;
15006;SDS011;7599;50.748;13.142;2023-04-07T12:32:33;6.95;;;2.88;;
15006;SDS011;7599;50.748;13.142;2023-04-07T12:44:06;6.68;;;2.70;;
15006;SDS011;7599;50.748;13.142;2023-04-07T12:47:17;6.40;;;2.63;;
15006;SDS011;7599;50.748;13.142;2023-04-07T12:50:24;6.80;;;2.40;;
15006;SDS011;7599;50.748;13.142;2023-04-07T12:53:31;7.15;;;2.67;;
15006;SDS011;7599;50.748;13.142;2023-04-07T12:56:35;6.50;;;2.50;;
15006;SDS011;7599;50.748;13.142;2023-04-07T12:59:44;6.70;;;2.55;;
15006;SDS011;7599;50.748;13.142;2023-04-07T13:02:48;6.15;;;2.42;;
15006;SDS011;7599;50.748;13.142;2023-04-07T13:09:07;8.57;;;3.38;;
15006;SDS011;7599;50.748;13.142;2023-04-07T13:12:14;6.97;;;2.42;;
15006;SDS011;7599;50.748;13.142;2023-04-07T13:15:17;6.95;;;3.13;;
15006;SDS011;7599;50.748;13.142;2023-04-07T13:18:20;7.13;;;2.72;;
15006;SDS011;7599;50.748;13.142;2023-04-07T13:21:23;5.70;;;2.55;;
15006;SDS011;7599;50.748;13.142;2023-04-07T13:24:30;5.88;;;2.63;;
15006;SDS011;7599;50.748;13.142;2023-04-07T13:27:33;5.88;;;3.28;;
15006;SDS011;7599;50.748;13.142;2023-04-07T13:30:36;7.50;;;2.75;;
15006;SDS011;7599;50.748;13.142;2023-04-07T13:33:39;7.55;;;3.45;;
15006;SDS011;7599;50.748;13.142;2023-04-07T13:36:41;6.30;;;2.72;;
15006;SDS011;7599;50.748;13.142;2023-04-07T13:39:45;5.28;;;2.33;;
15006;SDS011;7599;50.748;13.142;2023-04-07T13:42:48;6.38;;;2.42;;
15006;SDS011;7599;50.748;13.142;2023-04-07T13:45:50;7.82;;;2.60;;
15006;SDS011;7599;50.748;13.142;2023-04-07T13:48:53;4.60;;;2.10;;
15006;SDS011;7599;50.748;13.142;2023-04-07T13:51:57;6.40;;;2.53;;
15006;SDS011;7599;50.748;13.142;2023-04-07T13:55:02;6.65;;;2.80;;
15006;SDS011;7599;50.748;13.142;2023-04-07T13:58:05;5.80;;;2.65;;
15006;SDS011;7599;50.748;13.142;2023-04-07T14:01:08;6.70;;;2.45;;
15006;SDS011;7599;50.748;13.142;2023-04-07T14:04:11;5.78;;;2.55;;
15006;SDS011;7599;50.748;13.142;2023-04-07T14:07:14;6.05;;;2.80;;
15006;SDS011;7599;50.748;13.142;2023-04-07T14:10:19;7.05;;;2.97;;
15006;SDS011;7599;50.748;13.142;2023-04-07T14:13:21;6.15;;;2.35;;
15006;SDS011;7599;50.748;13.142;2023-04-07T14:16:24;7.05;;;2.60;;
15006;SDS011;7599;50.748;13.142;2023-04-07T14:19:28;6.40;;;2.97;;
15006;SDS011;7599;50.748;13.142;2023-04-07T14:22:30;8.20;;;2.90;;
15006;SDS011;7599;50.748;13.142;2023-04-07T14:25:34;6.18;;;2.33;;
15006;SDS011;7599;50.748;13.142;2023-04-07T14:28:37;6.25;;;2.47;;
15006;SDS011;7599;50.748;13.142;2023-04-07T14:34:45;6.00;;;2.70;;
15006;SDS011;7599;50.748;13.142;2023-04-07T14:37:48;7.90;;;3.13;;
15006;SDS011;7599;50.748;13.142;2023-04-07T14:40:53;7.25;;;2.47;;
15006;SDS011;7599;50.748;13.142;2023-04-07T14:43:56;7.97;;;2.63;;
15006;SDS011;7599;50.748;13.142;2023-04-07T14:46:59;5.97;;;2.30;;
15006;SDS011;7599;50.748;13.142;2023-04-07T14:50:02;6.43;;;2.58;;
15006;SDS011;7599;50.748;13.142;2023-04-07T14:53:05;5.90;;;2.53;;
15006;SDS011;7599;50.748;13.142;2023-04-07T14:56:09;6.38;;;2.53;;
15006;SDS011;7599;50.748;13.142;2023-04-07T14:59:12;6.22;;;2.50;;
15006;SDS011;7599;50.748;13.142;2023-04-07T15:02:15;5.10;;;2.33;;
15006;SDS011;7599;50.748;13.142;2023-04-07T15:05:17;4.93;;;2.40;;
15006;SDS011;7599;50.748;13.142;2023-04-07T15:08:21;7.78;;;3.05;;
15006;SDS011;7599;50.748;13.142;2023-04-07T15:11:25;7.32;;;2.95;;
15006;SDS011;7599;50.748;13.142;2023-04-07T15:14:28;8.23;;;2.95;;
15006;SDS011;7599;50.748;13.142;2023-04-07T15:17:30;6.03;;;2.75;;
15006;SDS011;7599;50.748;13.142;2023-04-07T15:20:42;6.28;;;3.13;;
15006;SDS011;7599;50.748;13.142;2023-04-07T15:23:45;7.57;;;3.13;;
15006;SDS011;7599;50.748;13.142;2023-04-07T15:26:50;7.78;;;4.20;;
15006;SDS011;7599;50.748;13.142;2023-04-07T15:29:52;7.35;;;2.72;;
15006;SDS011;7599;50.748;13.142;2023-04-07T15:32:55;6.60;;;2.72;;
15006;SDS011;7599;50.748;13.142;2023-04-07T15:35:59;6.30;;;2.53;;
15006;SDS011;7599;50.748;13.142;2023-04-07T15:39:02;6.38;;;2.58;;
15006;SDS011;7599;50.748;13.142;2023-04-07T15:42:07;7.38;;;2.92;;
15006;SDS011;7599;50.748;13.142;2023-04-07T15:45:12;5.75;;;2.42;;
15006;SDS011;7599;50.748;13.142;2023-04-07T15:48:16;6.25;;;2.30;;
15006;SDS011;7599;50.748;13.142;2023-04-07T15:51:19;7.25;;;3.00;;
15006;SDS011;7599;50.748;13.142;2023-04-07T15:54:21;5.97;;;2.45;;
15006;SDS011;7599;50.748;13.142;2023-04-07T15:57:25;7.18;;;2.25;;
15006;SDS011;7599;50.748;13.142;2023-04-07T16:00:28;6.53;;;2.75;;
15006;SDS011;7599;50.748;13.142;2023-04-07T16:03:33;8.07;;;2.83;;
15006;SDS011;7599;50.748;13.142;2023-04-07T16:06:36;6.15;;;2.58;;
15006;SDS011;7599;50.748;13.142;2023-04-07T16:09:39;9.25;;;2.80;;
15006;SDS011;7599;50.748;13.142;2023-04-07T16:12:43;11.38;;;4.45;;
15006;SDS011;7599;50.748;13.142;2023-04-07T16:15:45;11.93;;;3.10;;
15006;SDS011;7599;50.748;13.142;2023-04-07T16:18:48;12.48;;;3.20;;
15006;SDS011;7599;50.748;13.142;2023-04-07T16:21:52;10.90;;;2.60;;
15006;SDS011;7599;50.748;13.142;2023-04-07T16:24:55;13.23;;;4.78;;
15006;SDS011;7599;50.748;13.142;2023-04-07T16:27:59;9.57;;;2.80;;
15006;SDS011;7599;50.748;13.142;2023-04-07T16:31:01;10.75;;;2.88;;
15006;SDS011;7599;50.748;13.142;2023-04-07T16:34:08;10.40;;;2.72;;
15006;SDS011;7599;50.748;13.142;2023-04-07T16:37:11;7.15;;;2.63;;
15006;SDS011;7599;50.748;13.142;2023-04-07T16:40:14;7.32;;;2.47;;
15006;SDS011;7599;50.748;13.142;2023-04-07T16:43:19;7.63;;;2.92;;
15006;SDS011;7599;50.748;13.142;2023-04-07T16:46:22;8.60;;;3.58;;
15006;SDS011;7599;50.748;13.142;2023-04-07T16:49:26;7.30;;;3.08;;
15006;SDS011;7599;50.748;13.142;2023-04-07T16:52:28;10.90;;;2.92;;
15006;SDS011;7599;50.748;13.142;2023-04-07T16:55:34;7.47;;;2.70;;
15006;SDS011;7599;50.748;13.142;2023-04-07T16:58:38;6.97;;;2.85;;
15006;SDS011;7599;50.748;13.142;2023-04-07T17:01:41;8.15;;;2.55;;
15006;SDS011;7599;50.748;13.142;2023-04-07T17:04:45;7.70;;;2.92;;
15006;SDS011;7599;50.748;13.142;2023-04-07T17:07:47;7.57;;;2.40;;
15006;SDS011;7599;50.748;13.142;2023-04-07T17:10:50;6.57;;;2.65;;
15006;SDS011;7599;50.748;13.142;2023-04-07T17:13:54;8.02;;;2.47;;
15006;SDS011;7599;50.748;13.142;2023-04-07T17:16:58;6.95;;;2.40;;
15006;SDS011;7599;50.748;13.142;2023-04-07T17:20:00;7.03;;;2.80;;
15006;SDS011;7599;50.748;13.142;2023-04-07T17:23:03;9.00;;;3.17;;
15006;SDS011;7599;50.748;13.142;2023-04-07T17:26:06;8.35;;;2.60;;
15006;SDS011;7599;50.748;13.142;2023-04-07T17:29:10;8.27;;;2.67;;
15006;SDS011;7599;50.748;13.142;2023-04-07T17:32:13;8.77;;;2.92;;
15006;SDS011;7599;50.748;13.142;2023-04-07T17:35:16;9.32;;;3.13;;
15006;SDS011;7599;50.748;13.142;2023-04-07T17:38:18;7.18;;;3.15;;
15006;SDS011;7599;50.748;13.142;2023-04-07T17:41:21;7.88;;;2.60;;
15006;SDS011;7599;50.748;13.142;2023-04-07T17:44:25;7.82;;;2.72;;
15006;SDS011;7599;50.748;13.142;2023-04-07T17:47:27;7.65;;;2.95;;
15006;SDS011;7599;50.748;13.142;2023-04-07T17:50:30;8.25;;;4.45;;
15006;SDS011;7599;50.748;13.142;2023-04-07T17:53:33;6.95;;;3.83;;
15006;SDS011;7599;50.748;13.142;2023-04-07T17:56:35;8.55;;;4.13;;
15006;SDS011;7599;50.748;13.142;2023-04-07T17:59:40;8.50;;;3.05;;
15006;SDS011;7599;50.748;13.142;2023-04-07T18:02:42;8.82;;;3.50;;
15006;SDS011;7599;50.748;13.142;2023-04-07T18:05:45;6.57;;;2.78;;
15006;SDS011;7599;50.748;13.142;2023-04-07T18:11:51;6.65;;;3.08;;
15006;SDS011;7599;50.748;13.142;2023-04-07T18:14:56;9.85;;;2.97;;
15006;SDS011;7599;50.748;13.142;2023-04-07T18:17:58;8.77;;;2.88;;
15006;SDS011;7599;50.748;13.142;2023-04-07T18:21:03;8.43;;;3.20;;
15006;SDS011;7599;50.748;13.142;2023-04-07T18:27:08;6.97;;;3.17;;
15006;SDS011;7599;50.748;13.142;2023-04-07T18:30:12;8.90;;;4.28;;
15006;SDS011;7599;50.748;13.142;2023-04-07T18:33:15;6.97;;;2.47;;
15006;SDS011;7599;50.748;13.142;2023-04-07T18:36:18;7.88;;;3.20;;
15006;SDS011;7599;50.748;13.142;2023-04-07T18:39:22;8.02;;;2.70;;
15006;SDS011;7599;50.748;13.142;2023-04-07T18:42:28;7.22;;;3.10;;
15006;SDS011;7599;50.748;13.142;2023-04-07T18:45:31;6.40;;;2.63;;
15006;SDS011;7599;50.748;13.142;2023-04-07T18:48:37;8.35;;;3.10;;
15006;SDS011;7599;50.748;13.142;2023-04-07T18:51:41;8.13;;;3.22;;
15006;SDS011;7599;50.748;13.142;2023-04-07T18:54:44;7.22;;;3.22;;
15006;SDS011;7599;50.748;13.142;2023-04-07T18:57:47;7.70;;;3.03;;
15006;SDS011;7599;50.748;13.142;2023-04-07T19:00:51;7.90;;;2.72;;
15006;SDS011;7599;50.748;13.142;2023-04-07T19:03:54;7.50;;;3.85;;
15006;SDS011;7599;50.748;13.142;2023-04-07T19:06:58;7.70;;;3.03;;
15006;SDS011;7599;50.748;13.142;2023-04-07T19:10:02;7.38;;;3.03;;